sensor_id;sensor_type;location;lat;lon;timestamp;pressure;altitude;pressure_sealevel;temperature;humidity
75933;BME280;64803;52.356;5.310;2023-04-22T00:02:17;101195.34;;;7.85;100.00
75933;BME280;64803;52.356;5.310;2023-04-22T00:04:44;101159.28;;;7.72;100.00
75933;BME280;64803;52.356;5.310;2023-04-22T00:07:12;101174.00;;;7.76;100.00
75933;BME280;64803;52.356;5.310;2023-04-22T00:09:38;101190.47;;;7.81;100.00
75933;BME280;64803;52.356;5.310;2023-04-22T00:12:04;101184.63;;;7.68;100.00
75933;BME280;64803;52.356;5.310;2023-04-22T00:14:30;101180.56;;;7.64;100.00
75933;BME280;64803;52.356;5.310;2023-04-22T00:16:56;101183.56;;;7.61;100.00
75933;BME280;64803;52.356;5.310;2023-04-22T00:19:22;101177.69;;;7.57;100.00
75933;BME280;64803;52.356;5.310;2023-04-22T00:21:49;101174.94;;;7.49;100.00
75933;BME280;64803;52.356;5.310;2023-04-22T00:24:15;101174.63;;;7.52;100.00
75933;BME280;64803;52.356;5.310;2023-04-22T00:26:41;101163.22;;;7.50;100.00
75933;BME280;64803;52.356;5.310;2023-04-22T00:29:07;101170.72;;;7.47;100.00
75933;BME280;64803;52.356;5.310;2023-04-22T00:31:33;101170.47;;;7.40;100.00
75933;BME280;64803;52.356;5.310;2023-04-22T00:33:59;101160.91;;;7.38;100.00
75933;BME280;64803;52.356;5.310;2023-04-22T00:36:25;101168.22;;;7.36;100.00
75933;BME280;64803;52.356;5.310;2023-04-22T00:38:52;101166.19;;;7.30;100.00
75933;BME280;64803;52.356;5.310;2023-04-22T00:41:19;101164.47;;;7.29;100.00
75933;BME280;64803;52.356;5.310;2023-04-22T00:43:45;101166.03;;;7.31;100.00
75933;BME280;64803;52.356;5.310;2023-04-22T00:46:11;101169.38;;;7.33;100.00
75933;BME280;64803;52.356;5.310;2023-04-22T00:48:37;101170.66;;;7.29;100.00
75933;BME280;64803;52.356;5.310;2023-04-22T00:51:04;101162.25;;;7.24;100.00
75933;BME280;64803;52.356;5.310;2023-04-22T00:53:30;101168.63;;;7.23;100.00
75933;BME280;64803;52.356;5.310;2023-04-22T00:55:57;101166.63;;;7.25;100.00
75933;BME280;64803;52.356;5.310;2023-04-22T00:58:27;101171.28;;;7.23;100.00
75933;BME280;64803;52.356;5.310;2023-04-22T01:00:54;101170.19;;;7.16;100.00
75933;BME280;64803;52.356;5.310;2023-04-22T01:03:20;101171.72;;;7.19;100.00
75933;BME280;64803;52.356;5.310;2023-04-22T01:05:48;101181.28;;;7.21;100.00
75933;BME280;64803;52.356;5.310;2023-04-22T01:08:15;101154.34;;;7.05;100.00
75933;BME280;64803;52.356;5.310;2023-04-22T01:10:41;101174.28;;;7.11;100.00
75933;BME280;64803;52.356;5.310;2023-04-22T01:13:08;101173.78;;;6.98;100.00
75933;BME280;64803;52.356;5.310;2023-04-22T01:15:34;101175.22;;;6.92;100.00
75933;BME280;64803;52.356;5.310;2023-04-22T01:18:00;101175.06;;;6.94;100.00
75933;BME280;64803;52.356;5.310;2023-04-22T01:20:27;101179.88;;;6.90;100.00
75933;BME280;64803;52.356;5.310;2023-04-22T01:23:01;101185.75;;;6.94;100.00
75933;BME280;64803;52.356;5.310;2023-04-22T01:25:28;101177.91;;;6.92;100.00
75933;BME280;64803;52.356;5.310;2023-04-22T01:27:55;101187.88;;;6.90;100.00
75933;BME280;64803;52.356;5.310;2023-04-22T01:30:21;101190.16;;;6.85;100.00
75933;BME280;64803;52.356;5.310;2023-04-22T01:32:48;101183.41;;;6.81;100.00
75933;BME280;64803;52.356;5.310;2023-04-22T01:35:14;101178.78;;;6.73;100.00
75933;BME280;64803;52.356;5.310;2023-04-22T01:37:40;101182.88;;;6.68;100.00
75933;BME280;64803;52.356;5.310;2023-04-22T01:40:09;101170.53;;;6.57;100.00
75933;BME280;64803;52.356;5.310;2023-04-22T01:42:36;101177.31;;;6.52;100.00
75933;BME280;64803;52.356;5.310;2023-04-22T01:45:02;101181.50;;;6.54;100.00
75933;BME280;64803;52.356;5.310;2023-04-22T01:47:28;101177.44;;;6.60;100.00
75933;BME280;64803;52.356;5.310;2023-04-22T01:49:54;101178.13;;;6.62;100.00
75933;BME280;64803;52.356;5.310;2023-04-22T01:52:20;101173.34;;;6.56;100.00
75933;BME280;64803;52.356;5.310;2023-04-22T01:54:47;101155.44;;;6.39;100.00
75933;BME280;64803;52.356;5.310;2023-04-22T01:57:13;101176.31;;;6.43;100.00
75933;BME280;64803;52.356;5.310;2023-04-22T01:59:41;101180.13;;;6.41;100.00
75933;BME280;64803;52.356;5.310;2023-04-22T02:02:07;101179.44;;;6.48;100.00
75933;BME280;64803;52.356;5.310;2023-04-22T02:04:33;101169.31;;;6.52;100.00
75933;BME280;64803;52.356;5.310;2023-04-22T02:06:59;101166.22;;;6.47;100.00
75933;BME280;64803;52.356;5.310;2023-04-22T02:09:25;101172.28;;;6.39;100.00
75933;BME280;64803;52.356;5.310;2023-04-22T02:11:51;101177.78;;;6.38;100.00
75933;BME280;64803;52.356;5.310;2023-04-22T02:14:20;101171.59;;;6.37;100.00
75933;BME280;64803;52.356;5.310;2023-04-22T02:16:46;101172.28;;;6.39;100.00
75933;BME280;64803;52.356;5.310;2023-04-22T02:19:12;101167.38;;;6.35;100.00
75933;BME280;64803;52.356;5.310;2023-04-22T02:21:38;101168.31;;;6.43;100.00
75933;BME280;64803;52.356;5.310;2023-04-22T02:24:05;101160.75;;;6.48;100.00
75933;BME280;64803;52.356;5.310;2023-04-22T02:26:31;101168.03;;;6.56;100.00
75933;BME280;64803;52.356;5.310;2023-04-22T02:28:57;101171.69;;;6.55;100.00
75933;BME280;64803;52.356;5.310;2023-04-22T02:31:25;101166.91;;;6.49;100.00
75933;BME280;64803;52.356;5.310;2023-04-22T02:33:52;101168.22;;;6.45;100.00
75933;BME280;64803;52.356;5.310;2023-04-22T02:36:18;101160.75;;;6.39;100.00
75933;BME280;64803;52.356;5.310;2023-04-22T02:38:45;101173.69;;;6.34;100.00
75933;BME280;64803;52.356;5.310;2023-04-22T02:41:14;101171.03;;;6.34;100.00
75933;BME280;64803;52.356;5.310;2023-04-22T02:43:41;101169.22;;;6.25;100.00
75933;BME280;64803;52.356;5.310;2023-04-22T02:46:14;101148.75;;;6.06;100.00
75933;BME280;64803;52.356;5.310;2023-04-22T02:48:43;101170.34;;;6.13;100.00
75933;BME280;64803;52.356;5.310;2023-04-22T02:51:10;101163.91;;;6.06;100.00
75933;BME280;64803;52.356;5.310;2023-04-22T02:53:36;101158.72;;;6.04;100.00
75933;BME280;64803;52.356;5.310;2023-04-22T02:56:02;101157.88;;;6.04;100.00
75933;BME280;64803;52.356;5.310;2023-04-22T02:58:28;101142.84;;;5.93;100.00
75933;BME280;64803;52.356;5.310;2023-04-22T03:00:54;101157.44;;;5.99;100.00
75933;BME280;64803;52.356;5.310;2023-04-22T03:03:21;101147.38;;;5.93;100.00
75933;BME280;64803;52.356;5.310;2023-04-22T03:05:47;101148.22;;;5.84;100.00
75933;BME280;64803;52.356;5.310;2023-04-22T03:08:14;101142.56;;;5.67;100.00
75933;BME280;64803;52.356;5.310;2023-04-22T03:10:40;101145.63;;;5.53;100.00
75933;BME280;64803;52.356;5.310;2023-04-22T03:13:06;101146.03;;;5.39;100.00
75933;BME280;64803;52.356;5.310;2023-04-22T03:15:32;101147.56;;;5.32;100.00
75933;BME280;64803;52.356;5.310;2023-04-22T03:17:58;101147.28;;;5.35;100.00
75933;BME280;64803;52.356;5.310;2023-04-22T03:20:25;101141.78;;;5.27;100.00
75933;BME280;64803;52.356;5.310;2023-04-22T03:22:52;101142.47;;;5.20;100.00
75933;BME280;64803;52.356;5.310;2023-04-22T03:25:18;101141.91;;;5.16;100.00
75933;BME280;64803;52.356;5.310;2023-04-22T03:27:51;101136.56;;;5.16;100.00
75933;BME280;64803;52.356;5.310;2023-04-22T03:30:17;101133.25;;;5.14;100.00
75933;BME280;64803;52.356;5.310;2023-04-22T03:32:43;101127.88;;;5.05;100.00
75933;BME280;64803;52.356;5.310;2023-04-22T03:35:18;101133.44;;;4.92;100.00
75933;BME280;64803;52.356;5.310;2023-04-22T03:37:47;101129.75;;;4.84;100.00
75933;BME280;64803;52.356;5.310;2023-04-22T03:40:17;101127.09;;;4.74;100.00
75933;BME280;64803;52.356;5.310;2023-04-22T03:42:43;101135.44;;;4.70;100.00
75933;BME280;64803;52.356;5.310;2023-04-22T03:45:10;101125.34;;;4.64;100.00
75933;BME280;64803;52.356;5.310;2023-04-22T03:47:41;101117.38;;;4.64;100.00
75933;BME280;64803;52.356;5.310;2023-04-22T03:50:17;101114.59;;;4.65;100.00
75933;BME280;64803;52.356;5.310;2023-04-22T03:52:43;101113.31;;;4.69;100.00
75933;BME280;64803;52.356;5.310;2023-04-22T03:55:09;101108.31;;;4.76;100.00
75933;BME280;64803;52.356;5.310;2023-04-22T03:57:36;101107.19;;;4.78;100.00
75933;BME280;64803;52.356;5.310;2023-04-22T04:00:03;101107.50;;;4.85;100.00
75933;BME280;64803;52.356;5.310;2023-04-22T04:02:41;101109.06;;;4.87;100.00
75933;BME280;64803;52.356;5.310;2023-04-22T04:05:10;101104.44;;;4.89;100.00
75933;BME280;64803;52.356;5.310;2023-04-22T04:07:38;101101.06;;;4.87;100.00
75933;BME280;64803;52.356;5.310;2023-04-22T04:10:06;101105.00;;;4.93;100.00
75933;BME280;64803;52.356;5.310;2023-04-22T04:12:32;101102.13;;;5.05;100.00
75933;BME280;64803;52.356;5.310;2023-04-22T04:14:59;101097.06;;;5.21;100.00
75933;BME280;64803;52.356;5.310;2023-04-22T04:17:25;101098.09;;;5.39;100.00
75933;BME280;64803;52.356;5.310;2023-04-22T04:19:52;101101.06;;;5.55;100.00
75933;BME280;64803;52.356;5.310;2023-04-22T04:22:19;101096.28;;;5.68;100.00
75933;BME280;64803;52.356;5.310;2023-04-22T04:24:52;101095.44;;;5.78;100.00
75933;BME280;64803;52.356;5.310;2023-04-22T04:27:22;101099.38;;;5.83;100.00
75933;BME280;64803;52.356;5.310;2023-04-22T04:29:51;101086.63;;;5.87;100.00
75933;BME280;64803;52.356;5.310;2023-04-22T04:32:29;101085.22;;;5.92;100.00
75933;BME280;64803;52.356;5.310;2023-04-22T04:34:59;101084.38;;;5.92;100.00
75933;BME280;64803;52.356;5.310;2023-04-22T04:37:26;101089.56;;;5.93;100.00
75933;BME280;64803;52.356;5.310;2023-04-22T04:39:59;101082.41;;;5.94;100.00
75933;BME280;64803;52.356;5.310;2023-04-22T04:42:37;101083.13;;;5.96;100.00
75933;BME280;64803;52.356;5.310;2023-04-22T04:45:07;101077.50;;;5.99;100.00
75933;BME280;64803;52.356;5.310;2023-04-22T04:47:34;101079.84;;;6.02;100.00
75933;BME280;64803;52.356;5.310;2023-04-22T04:50:10;101084.22;;;6.03;100.00
75933;BME280;64803;52.356;5.310;2023-04-22T04:52:37;101091.50;;;6.01;100.00
75933;BME280;64803;52.356;5.310;2023-04-22T04:55:04;101092.50;;;6.00;100.00
75933;BME280;64803;52.356;5.310;2023-04-22T04:57:32;101092.91;;;6.05;100.00
75933;BME280;64803;52.356;5.310;2023-04-22T04:59:59;101089.81;;;6.09;100.00
75933;BME280;64803;52.356;5.310;2023-04-22T05:02:26;101084.03;;;6.14;100.00
75933;BME280;64803;52.356;5.310;2023-04-22T05:04:52;101077.44;;;6.18;100.00
75933;BME280;64803;52.356;5.310;2023-04-22T05:07:18;101082.75;;;6.27;100.00
75933;BME280;64803;52.356;5.310;2023-04-22T05:09:46;101081.34;;;6.33;100.00
75933;BME280;64803;52.356;5.310;2023-04-22T05:12:12;101061.13;;;6.30;100.00
75933;BME280;64803;52.356;5.310;2023-04-22T05:14:38;101071.47;;;6.43;100.00
75933;BME280;64803;52.356;5.310;2023-04-22T05:17:06;101069.22;;;6.48;100.00
75933;BME280;64803;52.356;5.310;2023-04-22T05:19:33;101081.81;;;6.55;100.00
75933;BME280;64803;52.356;5.310;2023-04-22T05:22:00;101082.63;;;6.65;100.00
75933;BME280;64803;52.356;5.310;2023-04-22T05:24:26;101077.53;;;6.72;100.00
75933;BME280;64803;52.356;5.310;2023-04-22T05:26:53;101086.63;;;6.79;100.00
75933;BME280;64803;52.356;5.310;2023-04-22T05:29:19;101087.56;;;6.88;100.00
75933;BME280;64803;52.356;5.310;2023-04-22T05:31:45;101096.19;;;6.99;100.00
75933;BME280;64803;52.356;5.310;2023-04-22T05:34:11;101095.31;;;7.08;100.00
75933;BME280;64803;52.356;5.310;2023-04-22T05:36:39;101099.75;;;7.17;100.00
75933;BME280;64803;52.356;5.310;2023-04-22T05:39:06;101092.50;;;7.27;100.00
75933;BME280;64803;52.356;5.310;2023-04-22T05:41:33;101096.81;;;7.38;100.00
75933;BME280;64803;52.356;5.310;2023-04-22T05:43:59;101093.06;;;7.48;100.00
75933;BME280;64803;52.356;5.310;2023-04-22T05:46:26;101090.19;;;7.59;100.00
75933;BME280;64803;52.356;5.310;2023-04-22T05:48:53;101093.59;;;7.69;100.00
75933;BME280;64803;52.356;5.310;2023-04-22T05:51:39;101096.66;;;7.74;100.00
75933;BME280;64803;52.356;5.310;2023-04-22T05:54:05;101097.56;;;7.83;100.00
75933;BME280;64803;52.356;5.310;2023-04-22T05:56:32;101087.47;;;7.94;100.00
75933;BME280;64803;52.356;5.310;2023-04-22T05:58:58;101090.19;;;8.02;100.00
75933;BME280;64803;52.356;5.310;2023-04-22T06:01:25;101093.63;;;8.13;100.00
75933;BME280;64803;52.356;5.310;2023-04-22T06:03:56;101089.03;;;8.23;100.00
75933;BME280;64803;52.356;5.310;2023-04-22T06:06:23;101081.91;;;8.31;100.00
75933;BME280;64803;52.356;5.310;2023-04-22T06:08:50;101084.78;;;8.38;100.00
75933;BME280;64803;52.356;5.310;2023-04-22T06:11:16;101087.50;;;8.46;100.00
75933;BME280;64803;52.356;5.310;2023-04-22T06:13:42;101092.41;;;8.50;100.00
75933;BME280;64803;52.356;5.310;2023-04-22T06:16:09;101092.94;;;8.54;100.00
75933;BME280;64803;52.356;5.310;2023-04-22T06:18:35;101086.91;;;8.60;100.00
75933;BME280;64803;52.356;5.310;2023-04-22T06:21:03;101086.28;;;8.66;100.00
75933;BME280;64803;52.356;5.310;2023-04-22T06:23:29;101077.94;;;8.69;100.00
75933;BME280;64803;52.356;5.310;2023-04-22T06:25:55;101080.66;;;8.77;100.00
75933;BME280;64803;52.356;5.310;2023-04-22T06:28:23;101082.00;;;8.81;100.00
75933;BME280;64803;52.356;5.310;2023-04-22T06:30:52;101085.03;;;8.86;100.00
75933;BME280;64803;52.356;5.310;2023-04-22T06:33:18;101069.31;;;8.91;100.00
75933;BME280;64803;52.356;5.310;2023-04-22T06:35:44;101070.03;;;9.01;100.00
75933;BME280;64803;52.356;5.310;2023-04-22T06:38:10;101058.31;;;9.10;100.00
75933;BME280;64803;52.356;5.310;2023-04-22T06:40:44;101063.22;;;9.23;100.00
75933;BME280;64803;52.356;5.310;2023-04-22T06:43:30;101055.72;;;9.34;100.00
75933;BME280;64803;52.356;5.310;2023-04-22T06:46:09;101049.34;;;9.43;100.00
75933;BME280;64803;52.356;5.310;2023-04-22T06:49:01;101048.69;;;9.57;100.00
75933;BME280;64803;52.356;5.310;2023-04-22T06:51:57;101038.31;;;9.70;100.00
75933;BME280;64803;52.356;5.310;2023-04-22T06:54:23;101032.94;;;9.78;100.00
75933;BME280;64803;52.356;5.310;2023-04-22T06:56:50;101041.00;;;9.86;100.00
75933;BME280;64803;52.356;5.310;2023-04-22T06:59:16;101045.19;;;9.89;100.00
75933;BME280;64803;52.356;5.310;2023-04-22T07:01:42;101037.31;;;9.95;100.00
75933;BME280;64803;52.356;5.310;2023-04-22T07:04:08;101035.47;;;10.04;100.00
75933;BME280;64803;52.356;5.310;2023-04-22T07:06:34;101032.59;;;10.13;100.00
75933;BME280;64803;52.356;5.310;2023-04-22T07:09:01;101022.50;;;10.23;100.00
75933;BME280;64803;52.356;5.310;2023-04-22T07:11:27;101013.25;;;10.34;100.00
75933;BME280;64803;52.356;5.310;2023-04-22T07:13:59;101009.38;;;10.45;100.00
75933;BME280;64803;52.356;5.310;2023-04-22T07:16:25;100987.25;;;10.35;100.00
75933;BME280;64803;52.356;5.310;2023-04-22T07:18:53;101013.00;;;10.60;100.00
75933;BME280;64803;52.356;5.310;2023-04-22T07:21:19;101017.69;;;10.66;100.00
75933;BME280;64803;52.356;5.310;2023-04-22T07:23:45;101014.25;;;10.80;100.00
75933;BME280;64803;52.356;5.310;2023-04-22T07:26:11;101020.72;;;10.93;100.00
75933;BME280;64803;52.356;5.310;2023-04-22T07:28:37;101010.25;;;11.06;100.00
75933;BME280;64803;52.356;5.310;2023-04-22T07:31:03;101018.38;;;11.21;100.00
75933;BME280;64803;52.356;5.310;2023-04-22T07:33:29;101019.00;;;11.31;100.00
75933;BME280;64803;52.356;5.310;2023-04-22T07:35:55;101019.53;;;11.49;100.00
75933;BME280;64803;52.356;5.310;2023-04-22T07:38:21;101018.63;;;11.57;100.00
75933;BME280;64803;52.356;5.310;2023-04-22T07:40:47;101009.69;;;11.64;100.00
75933;BME280;64803;52.356;5.310;2023-04-22T07:43:13;101004.97;;;11.66;100.00
75933;BME280;64803;52.356;5.310;2023-04-22T07:45:39;101012.50;;;11.71;100.00
75933;BME280;64803;52.356;5.310;2023-04-22T07:48:05;101020.84;;;11.76;100.00
75933;BME280;64803;52.356;5.310;2023-04-22T07:50:31;101021.88;;;11.75;100.00
75933;BME280;64803;52.356;5.310;2023-04-22T07:52:57;101024.69;;;11.81;100.00
75933;BME280;64803;52.356;5.310;2023-04-22T07:55:23;101020.53;;;11.93;100.00
75933;BME280;64803;52.356;5.310;2023-04-22T07:57:49;101015.25;;;12.00;100.00
75933;BME280;64803;52.356;5.310;2023-04-22T08:00:16;101019.44;;;12.02;100.00
75933;BME280;64803;52.356;5.310;2023-04-22T08:02:42;101014.06;;;12.02;100.00
75933;BME280;64803;52.356;5.310;2023-04-22T08:05:08;101028.84;;;12.21;100.00
75933;BME280;64803;52.356;5.310;2023-04-22T08:07:35;101026.16;;;12.35;100.00
75933;BME280;64803;52.356;5.310;2023-04-22T08:10:01;101025.88;;;12.60;100.00
75933;BME280;64803;52.356;5.310;2023-04-22T08:12:27;101032.06;;;12.75;100.00
75933;BME280;64803;52.356;5.310;2023-04-22T08:14:53;101034.69;;;12.83;100.00
75933;BME280;64803;52.356;5.310;2023-04-22T08:17:19;101031.22;;;12.89;100.00
75933;BME280;64803;52.356;5.310;2023-04-22T08:19:47;101040.63;;;12.93;100.00
75933;BME280;64803;52.356;5.310;2023-04-22T08:22:14;101021.94;;;12.91;100.00
75933;BME280;64803;52.356;5.310;2023-04-22T08:24:40;101014.31;;;12.80;100.00
75933;BME280;64803;52.356;5.310;2023-04-22T08:27:06;101008.75;;;12.82;100.00
75933;BME280;64803;52.356;5.310;2023-04-22T08:29:32;101009.31;;;12.77;100.00
75933;BME280;64803;52.356;5.310;2023-04-22T08:31:58;101015.16;;;12.81;100.00
75933;BME280;64803;52.356;5.310;2023-04-22T08:34:24;101015.38;;;12.79;100.00
75933;BME280;64803;52.356;5.310;2023-04-22T08:36:52;101012.75;;;12.86;100.00
75933;BME280;64803;52.356;5.310;2023-04-22T08:39:18;100995.06;;;12.98;100.00
75933;BME280;64803;52.356;5.310;2023-04-22T08:41:44;100983.41;;;12.97;100.00
75933;BME280;64803;52.356;5.310;2023-04-22T08:44:13;100983.25;;;12.99;100.00
75933;BME280;64803;52.356;5.310;2023-04-22T08:46:39;100980.91;;;12.96;100.00
75933;BME280;64803;52.356;5.310;2023-04-22T08:49:06;100959.94;;;12.91;100.00
75933;BME280;64803;52.356;5.310;2023-04-22T08:51:33;100960.66;;;13.00;100.00
75933;BME280;64803;52.356;5.310;2023-04-22T08:54:00;100958.97;;;13.13;100.00
75933;BME280;64803;52.356;5.310;2023-04-22T08:56:27;100964.59;;;13.18;100.00
75933;BME280;64803;52.356;5.310;2023-04-22T08:58:53;100972.78;;;13.25;100.00
75933;BME280;64803;52.356;5.310;2023-04-22T09:01:21;100951.06;;;13.33;100.00
75933;BME280;64803;52.356;5.310;2023-04-22T09:03:47;100969.50;;;13.78;100.00
75933;BME280;64803;52.356;5.310;2023-04-22T09:06:15;100962.41;;;13.49;100.00
75933;BME280;64803;52.356;5.310;2023-04-22T09:08:42;100978.09;;;13.39;100.00
75933;BME280;64803;52.356;5.310;2023-04-22T09:11:08;100963.91;;;13.31;100.00
75933;BME280;64803;52.356;5.310;2023-04-22T09:13:35;100968.59;;;13.43;100.00
75933;BME280;64803;52.356;5.310;2023-04-22T09:16:01;100974.44;;;13.47;100.00
75933;BME280;64803;52.356;5.310;2023-04-22T09:18:27;100967.91;;;13.84;100.00
75933;BME280;64803;52.356;5.310;2023-04-22T09:20:54;100976.03;;;14.18;100.00
75933;BME280;64803;52.356;5.310;2023-04-22T09:23:21;100962.44;;;14.32;100.00
75933;BME280;64803;52.356;5.310;2023-04-22T09:25:48;100959.16;;;14.09;100.00
75933;BME280;64803;52.356;5.310;2023-04-22T09:28:17;100961.72;;;14.17;100.00
75933;BME280;64803;52.356;5.310;2023-04-22T09:30:44;100960.59;;;14.33;100.00
75933;BME280;64803;52.356;5.310;2023-04-22T09:33:12;100956.31;;;14.17;100.00
75933;BME280;64803;52.356;5.310;2023-04-22T09:35:42;100961.00;;;14.36;100.00
75933;BME280;64803;52.356;5.310;2023-04-22T09:38:10;100954.00;;;14.48;100.00
75933;BME280;64803;52.356;5.310;2023-04-22T09:40:40;100942.88;;;14.78;100.00
75933;BME280;64803;52.356;5.310;2023-04-22T09:43:07;100939.66;;;15.15;100.00
75933;BME280;64803;52.356;5.310;2023-04-22T09:45:40;100945.94;;;15.35;100.00
75933;BME280;64803;52.356;5.310;2023-04-22T09:50:35;100933.91;;;15.70;100.00
75933;BME280;64803;52.356;5.310;2023-04-22T09:53:04;100930.53;;;15.94;100.00
75933;BME280;64803;52.356;5.310;2023-04-22T09:55:35;100923.00;;;16.16;100.00
75933;BME280;64803;52.356;5.310;2023-04-22T09:58:07;100918.84;;;16.07;96.92
75933;BME280;64803;52.356;5.310;2023-04-22T10:00:35;100918.63;;;16.08;98.70
75933;BME280;64803;52.356;5.310;2023-04-22T10:03:04;100890.69;;;16.14;100.00
75933;BME280;64803;52.356;5.310;2023-04-22T10:05:30;100903.94;;;16.35;96.01
75933;BME280;64803;52.356;5.310;2023-04-22T10:07:56;100890.47;;;16.16;94.73
75933;BME280;64803;52.356;5.310;2023-04-22T10:10:22;100885.47;;;16.19;95.01
75933;BME280;64803;52.356;5.310;2023-04-22T10:12:49;100888.38;;;16.24;94.79
75933;BME280;64803;52.356;5.310;2023-04-22T10:15:16;100890.28;;;16.17;96.87
75933;BME280;64803;52.356;5.310;2023-04-22T10:17:44;100868.34;;;16.25;99.24
75933;BME280;64803;52.356;5.310;2023-04-22T10:20:15;100890.38;;;16.48;100.00
75933;BME280;64803;52.356;5.310;2023-04-22T10:22:42;100895.75;;;16.61;100.00
75933;BME280;64803;52.356;5.310;2023-04-22T10:25:22;100895.63;;;16.81;100.00
75933;BME280;64803;52.356;5.310;2023-04-22T10:28:02;100904.78;;;16.86;98.98
75933;BME280;64803;52.356;5.310;2023-04-22T10:30:30;100914.13;;;16.97;100.00
75933;BME280;64803;52.356;5.310;2023-04-22T10:38:37;100921.28;;;17.16;91.25
75933;BME280;64803;52.356;5.310;2023-04-22T10:41:04;100916.72;;;17.17;94.49
75933;BME280;64803;52.356;5.310;2023-04-22T10:46:06;100905.13;;;16.97;100.00
75933;BME280;64803;52.356;5.310;2023-04-22T10:48:51;100899.13;;;17.19;97.03
75933;BME280;64803;52.356;5.310;2023-04-22T10:59:56;100890.44;;;17.11;94.88
75933;BME280;64803;52.356;5.310;2023-04-22T11:02:21;100895.78;;;17.24;96.63
75933;BME280;64803;52.356;5.310;2023-04-22T11:04:47;100895.94;;;17.29;96.11
75933;BME280;64803;52.356;5.310;2023-04-22T11:10:07;100889.34;;;16.87;93.45
75933;BME280;64803;52.356;5.310;2023-04-22T11:17:36;100898.50;;;17.24;94.55
75933;BME280;64803;52.356;5.310;2023-04-22T11:20:03;100909.13;;;17.25;92.65
75933;BME280;64803;52.356;5.310;2023-04-22T11:22:39;100907.47;;;17.24;90.80
75933;BME280;64803;52.356;5.310;2023-04-22T11:25:05;100906.34;;;17.32;91.38
75933;BME280;64803;52.356;5.310;2023-04-22T11:27:32;100898.22;;;17.32;91.34
75933;BME280;64803;52.356;5.310;2023-04-22T11:30:07;100899.06;;;17.32;92.16
75933;BME280;64803;52.356;5.310;2023-04-22T11:32:40;100893.50;;;17.21;90.16
75933;BME280;64803;52.356;5.310;2023-04-22T11:35:09;100904.78;;;16.36;90.62
75933;BME280;64803;52.356;5.310;2023-04-22T11:37:43;100895.97;;;15.37;96.08
75933;BME280;64803;52.356;5.310;2023-04-22T11:40:12;100890.09;;;14.82;100.00
75933;BME280;64803;52.356;5.310;2023-04-22T11:42:39;100909.19;;;14.74;100.00
75933;BME280;64803;52.356;5.310;2023-04-22T11:45:06;100888.50;;;14.40;99.95
75933;BME280;64803;52.356;5.310;2023-04-22T11:47:33;100908.19;;;14.34;100.00
75933;BME280;64803;52.356;5.310;2023-04-22T11:50:01;100904.56;;;14.14;100.00
75933;BME280;64803;52.356;5.310;2023-04-22T11:53:03;100907.13;;;13.94;100.00
75933;BME280;64803;52.356;5.310;2023-04-22T11:55:34;100913.28;;;13.82;100.00
75933;BME280;64803;52.356;5.310;2023-04-22T11:58:04;100899.53;;;13.77;100.00
75933;BME280;64803;52.356;5.310;2023-04-22T12:00:33;100890.34;;;13.71;100.00
75933;BME280;64803;52.356;5.310;2023-04-22T12:03:02;100898.22;;;13.66;100.00
75933;BME280;64803;52.356;5.310;2023-04-22T12:05:32;100924.72;;;13.56;100.00
75933;BME280;64803;52.356;5.310;2023-04-22T12:08:00;100928.97;;;13.44;100.00
75933;BME280;64803;52.356;5.310;2023-04-22T12:10:26;100945.66;;;13.33;100.00
75933;BME280;64803;52.356;5.310;2023-04-22T12:12:53;100960.97;;;13.26;100.00
75933;BME280;64803;52.356;5.310;2023-04-22T12:15:19;100938.94;;;13.22;100.00
75933;BME280;64803;52.356;5.310;2023-04-22T12:17:45;100933.09;;;13.19;100.00
75933;BME280;64803;52.356;5.310;2023-04-22T12:20:11;100937.28;;;13.21;100.00
75933;BME280;64803;52.356;5.310;2023-04-22T12:22:38;100928.59;;;13.26;100.00
75933;BME280;64803;52.356;5.310;2023-04-22T12:25:05;100936.44;;;13.21;100.00
75933;BME280;64803;52.356;5.310;2023-04-22T12:27:31;100942.22;;;13.18;100.00
75933;BME280;64803;52.356;5.310;2023-04-22T12:29:57;100951.44;;;13.09;100.00
75933;BME280;64803;52.356;5.310;2023-04-22T12:32:25;100941.13;;;12.98;100.00
75933;BME280;64803;52.356;5.310;2023-04-22T12:34:52;100950.63;;;12.94;100.00
75933;BME280;64803;52.356;5.310;2023-04-22T12:37:18;100941.09;;;12.77;100.00
75933;BME280;64803;52.356;5.310;2023-04-22T12:39:44;100961.78;;;12.91;100.00
75933;BME280;64803;52.356;5.310;2023-04-22T12:42:10;100958.91;;;12.92;100.00
75933;BME280;64803;52.356;5.310;2023-04-22T12:44:36;100943.56;;;12.93;100.00
75933;BME280;64803;52.356;5.310;2023-04-22T12:47:02;100923.66;;;12.94;100.00
75933;BME280;64803;52.356;5.310;2023-04-22T12:49:29;100929.25;;;13.07;100.00
75933;BME280;64803;52.356;5.310;2023-04-22T12:51:55;100933.34;;;13.03;100.00
75933;BME280;64803;52.356;5.310;2023-04-22T12:54:21;100930.53;;;13.11;100.00
75933;BME280;64803;52.356;5.310;2023-04-22T12:56:47;100956.00;;;13.08;100.00
75933;BME280;64803;52.356;5.310;2023-04-22T12:59:13;100949.81;;;12.93;100.00
75933;BME280;64803;52.356;5.310;2023-04-22T13:01:39;100964.03;;;13.02;100.00
75933;BME280;64803;52.356;5.310;2023-04-22T13:04:05;100964.47;;;12.91;100.00
75933;BME280;64803;52.356;5.310;2023-04-22T13:06:32;100965.88;;;12.87;100.00
75933;BME280;64803;52.356;5.310;2023-04-22T13:08:58;100965.94;;;12.72;100.00
75933;BME280;64803;52.356;5.310;2023-04-22T13:11:24;100964.28;;;12.57;100.00
75933;BME280;64803;52.356;5.310;2023-04-22T13:13:51;100946.44;;;12.56;100.00
75933;BME280;64803;52.356;5.310;2023-04-22T13:16:17;100949.31;;;12.54;100.00